This is the latest recevied weather packets stored in our database for station/object TVARMINN. If no packets are shown the sender has not sent any weather packets the latest 10 day(s).
| Time | Temp. | Humidity | Pressure | Rain* | Wind** | Luminosity | Snow |
|---|---|---|---|---|---|---|---|
| 1777789630 | 8.89° C | 78% | 1007.7 hPa | 0 mm | - | - | - |
| 1777788429 | 8.33° C | 83% | 1007.5 hPa | 0 mm | - | - | - |
| 1777787230 | 8.33° C | 83% | 1007.2 hPa | 0 mm | - | - | - |
| 1777786029 | 7.78° C | 85% | 1007.2 hPa | 0 mm | - | - | - |
| 1777784829 | 7.78° C | 86% | 1007 hPa | 0 mm | - | - | - |
| 1777783629 | 7.22° C | 87% | 1006.8 hPa | 0 mm | - | - | - |
| 1777782429 | 6.67° C | 88% | 1006.7 hPa | 0 mm | - | - | - |
| 1777781229 | 6.67° C | 90% | 1006.3 hPa | 0 mm | - | - | - |
| 1777780029 | 6.11° C | 91% | 1006.3 hPa | 0 mm | - | - | - |
| 1777778829 | 6.11° C | 91% | 1006.1 hPa | 0 mm | - | - | - |
| 1777777630 | 5.56° C | 94% | 1005.9 hPa | 0 mm | - | - | - |
| 1777776430 | 5° C | 93% | 1006 hPa | 0 mm | - | - | - |
| 1777775229 | 5° C | 94% | 1005.9 hPa | 0 mm | - | - | - |
| 1777774029 | 5.56° C | 91% | 1005.9 hPa | 0 mm | - | - | - |
| 1777772830 | 5.56° C | 92% | 1005.8 hPa | 0 mm | - | - | - |
| 1777771629 | 5.56° C | 91% | 1005.9 hPa | 0 mm | - | - | - |
| 1777770429 | 5.56° C | 92% | 1005.9 hPa | 0 mm | - | - | - |
| 1777769229 | 5.56° C | 90% | 1006.1 hPa | 0 mm | - | - | - |
| 1777768029 | 6.11° C | 90% | 1006.2 hPa | 0 mm | - | - | - |
| 1777766829 | 6.11° C | 90% | 1006.4 hPa | 0 mm | - | - | - |
| 1777765629 | 6.11° C | 89% | 1006.6 hPa | 0 mm | - | - | - |
| 1777764429 | 6.11° C | 89% | 1006.7 hPa | 0 mm | - | - | - |
| 1777763228 | 6.11° C | 88% | 1007 hPa | 0 mm | - | - | - |
| 1777762029 | 6.11° C | 89% | 1007.1 hPa | 0 mm | - | - | - |
| 1777760829 | 6.11° C | 88% | 1007.4 hPa | 0 mm | - | - | - |
* Rain latest hour (hover to see other rain measurements)
** Current wind speed in m/s (hover to see current wind gust speed)